sensor_id;sensor_type;location;lat;lon;timestamp;pressure;altitude;pressure_sealevel;temperature;humidity
13869;BME280;7004;48.206;16.402;2023-05-18T00:01:13;100263.31;;;11.02;88.11
13869;BME280;7004;48.206;16.402;2023-05-18T00:03:40;100260.78;;;11.00;86.38
13869;BME280;7004;48.206;16.402;2023-05-18T00:06:06;100271.63;;;11.26;88.41
13869;BME280;7004;48.206;16.402;2023-05-18T00:08:33;100261.81;;;10.82;87.81
13869;BME280;7004;48.206;16.402;2023-05-18T00:11:03;100253.25;;;11.08;89.24
13869;BME280;7004;48.206;16.402;2023-05-18T00:13:30;100257.47;;;11.27;89.07
13869;BME280;7004;48.206;16.402;2023-05-18T00:15:56;100261.34;;;10.89;88.46
13869;BME280;7004;48.206;16.402;2023-05-18T00:18:22;100270.91;;;11.24;88.52
13869;BME280;7004;48.206;16.402;2023-05-18T00:20:54;100249.16;;;11.03;86.23
13869;BME280;7004;48.206;16.402;2023-05-18T00:23:30;100249.06;;;10.88;86.68
13869;BME280;7004;48.206;16.402;2023-05-18T00:25:59;100255.09;;;11.22;86.60
13869;BME280;7004;48.206;16.402;2023-05-18T00:28:26;100255.72;;;11.11;89.62
13869;BME280;7004;48.206;16.402;2023-05-18T00:30:52;100257.06;;;11.49;88.31
13869;BME280;7004;48.206;16.402;2023-05-18T00:33:18;100255.88;;;11.24;89.49
13869;BME280;7004;48.206;16.402;2023-05-18T00:35:45;100251.22;;;10.82;88.17
13869;BME280;7004;48.206;16.402;2023-05-18T00:38:11;100249.50;;;10.81;87.48
13869;BME280;7004;48.206;16.402;2023-05-18T00:40:40;100258.56;;;10.92;86.57
13869;BME280;7004;48.206;16.402;2023-05-18T00:43:07;100251.88;;;11.01;86.06
13869;BME280;7004;48.206;16.402;2023-05-18T00:45:33;100254.53;;;11.01;86.62
13869;BME280;7004;48.206;16.402;2023-05-18T00:47:59;100260.59;;;11.03;86.97
13869;BME280;7004;48.206;16.402;2023-05-18T00:50:25;100254.47;;;11.33;87.04
13869;BME280;7004;48.206;16.402;2023-05-18T00:52:52;100259.56;;;11.36;88.13
13869;BME280;7004;48.206;16.402;2023-05-18T00:55:18;100262.31;;;10.88;88.65
13869;BME280;7004;48.206;16.402;2023-05-18T00:57:45;100259.16;;;10.82;87.32
13869;BME280;7004;48.206;16.402;2023-05-18T01:00:14;100258.72;;;11.35;87.56
13869;BME280;7004;48.206;16.402;2023-05-18T01:02:40;100257.59;;;10.93;88.00
13869;BME280;7004;48.206;16.402;2023-05-18T01:05:11;100265.28;;;11.14;86.52
13869;BME280;7004;48.206;16.402;2023-05-18T01:07:39;100261.19;;;11.08;86.89
13869;BME280;7004;48.206;16.402;2023-05-18T01:10:14;100262.38;;;10.87;86.32
13869;BME280;7004;48.206;16.402;2023-05-18T01:12:53;100264.50;;;11.12;86.78
13869;BME280;7004;48.206;16.402;2023-05-18T01:15:37;100259.63;;;11.50;85.60
13869;BME280;7004;48.206;16.402;2023-05-18T01:18:26;100264.69;;;10.93;86.99
13869;BME280;7004;48.206;16.402;2023-05-18T01:21:28;100259.94;;;11.30;87.28
13869;BME280;7004;48.206;16.402;2023-05-18T01:24:42;100255.63;;;11.43;87.80
13869;BME280;7004;48.206;16.402;2023-05-18T01:27:09;100254.47;;;11.33;85.05
13869;BME280;7004;48.206;16.402;2023-05-18T01:29:40;100263.47;;;11.14;84.05
13869;BME280;7004;48.206;16.402;2023-05-18T01:32:08;100253.09;;;11.42;85.33
13869;BME280;7004;48.206;16.402;2023-05-18T01:34:34;100259.00;;;11.31;83.79
13869;BME280;7004;48.206;16.402;2023-05-18T01:37:00;100260.59;;;11.03;85.81
13869;BME280;7004;48.206;16.402;2023-05-18T01:39:27;100265.59;;;11.24;83.31
13869;BME280;7004;48.206;16.402;2023-05-18T01:42:05;100264.09;;;11.64;86.03
13869;BME280;7004;48.206;16.402;2023-05-18T01:44:49;100257.44;;;11.43;84.17
13869;BME280;7004;48.206;16.402;2023-05-18T01:47:17;100256.22;;;11.18;84.74
13869;BME280;7004;48.206;16.402;2023-05-18T01:50:00;100258.81;;;10.72;85.60
13869;BME280;7004;48.206;16.402;2023-05-18T01:52:36;100264.44;;;10.98;83.95
13869;BME280;7004;48.206;16.402;2023-05-18T01:55:04;100261.19;;;11.08;83.42
13869;BME280;7004;48.206;16.402;2023-05-18T01:57:32;100270.16;;;11.06;83.06
13869;BME280;7004;48.206;16.402;2023-05-18T02:00:00;100267.97;;;11.28;86.37
13869;BME280;7004;48.206;16.402;2023-05-18T02:02:27;100268.13;;;11.25;87.54
13869;BME280;7004;48.206;16.402;2023-05-18T02:04:54;100259.47;;;10.91;86.72
13869;BME280;7004;48.206;16.402;2023-05-18T02:07:22;100263.56;;;10.97;82.02
13869;BME280;7004;48.206;16.402;2023-05-18T02:09:48;100254.25;;;11.22;84.87
13869;BME280;7004;48.206;16.402;2023-05-18T02:12:14;100252.91;;;10.99;83.65
13869;BME280;7004;48.206;16.402;2023-05-18T02:14:41;100251.81;;;10.71;83.74
13869;BME280;7004;48.206;16.402;2023-05-18T02:17:07;100255.03;;;10.92;82.49
13869;BME280;7004;48.206;16.402;2023-05-18T02:19:36;100254.09;;;11.09;82.49
13869;BME280;7004;48.206;16.402;2023-05-18T02:22:04;100253.09;;;10.96;81.49
13869;BME280;7004;48.206;16.402;2023-05-18T02:24:33;100259.00;;;10.85;82.50
13869;BME280;7004;48.206;16.402;2023-05-18T02:26:59;100247.03;;;10.78;82.02
13869;BME280;7004;48.206;16.402;2023-05-18T02:29:26;100246.00;;;10.80;82.71
13869;BME280;7004;48.206;16.402;2023-05-18T02:31:52;100255.94;;;10.77;83.81
13869;BME280;7004;48.206;16.402;2023-05-18T02:34:20;100250.47;;;10.80;81.89
13869;BME280;7004;48.206;16.402;2023-05-18T02:36:47;100253.84;;;11.13;80.07
13869;BME280;7004;48.206;16.402;2023-05-18T02:39:14;100253.06;;;11.11;81.39
13869;BME280;7004;48.206;16.402;2023-05-18T02:41:40;100247.59;;;11.14;81.20
13869;BME280;7004;48.206;16.402;2023-05-18T02:44:06;100246.09;;;11.10;80.64
13869;BME280;7004;48.206;16.402;2023-05-18T02:46:32;100245.56;;;11.04;81.34
13869;BME280;7004;48.206;16.402;2023-05-18T02:48:58;100248.53;;;11.44;81.67
13869;BME280;7004;48.206;16.402;2023-05-18T02:51:24;100245.53;;;11.20;78.17
13869;BME280;7004;48.206;16.402;2023-05-18T02:53:51;100245.28;;;11.24;82.34
13869;BME280;7004;48.206;16.402;2023-05-18T02:56:17;100248.91;;;10.91;79.44
13869;BME280;7004;48.206;16.402;2023-05-18T02:58:44;100240.78;;;11.10;76.74
13869;BME280;7004;48.206;16.402;2023-05-18T03:01:10;100253.25;;;11.38;78.47
13869;BME280;7004;48.206;16.402;2023-05-18T03:03:40;100238.31;;;11.68;79.39
13869;BME280;7004;48.206;16.402;2023-05-18T03:06:07;100246.75;;;11.14;79.80
13869;BME280;7004;48.206;16.402;2023-05-18T03:08:35;100248.72;;;11.10;79.76
13869;BME280;7004;48.206;16.402;2023-05-18T03:11:05;100244.19;;;11.12;77.45
13869;BME280;7004;48.206;16.402;2023-05-18T03:13:32;100244.72;;;11.49;78.97
13869;BME280;7004;48.206;16.402;2023-05-18T03:15:58;100251.47;;;11.39;78.22
13869;BME280;7004;48.206;16.402;2023-05-18T03:18:24;100255.13;;;11.06;77.25
13869;BME280;7004;48.206;16.402;2023-05-18T03:20:50;100253.53;;;11.34;78.99
13869;BME280;7004;48.206;16.402;2023-05-18T03:23:20;100261.47;;;11.64;77.99
13869;BME280;7004;48.206;16.402;2023-05-18T03:25:46;100262.25;;;11.20;76.63
13869;BME280;7004;48.206;16.402;2023-05-18T03:28:19;100253.38;;;11.37;79.28
13869;BME280;7004;48.206;16.402;2023-05-18T03:30:45;100267.22;;;11.26;76.49
13869;BME280;7004;48.206;16.402;2023-05-18T03:33:11;100245.69;;;11.63;76.75
13869;BME280;7004;48.206;16.402;2023-05-18T03:35:37;100261.38;;;11.35;77.21
13869;BME280;7004;48.206;16.402;2023-05-18T03:38:06;100260.31;;;11.24;75.24
13869;BME280;7004;48.206;16.402;2023-05-18T03:40:32;100262.53;;;11.46;75.80
13869;BME280;7004;48.206;16.402;2023-05-18T03:42:58;100259.81;;;11.47;75.87
13869;BME280;7004;48.206;16.402;2023-05-18T03:45:24;100265.94;;;11.18;74.68
13869;BME280;7004;48.206;16.402;2023-05-18T03:47:50;100255.75;;;11.42;75.68
13869;BME280;7004;48.206;16.402;2023-05-18T03:50:16;100258.00;;;11.18;73.51
13869;BME280;7004;48.206;16.402;2023-05-18T03:52:43;100261.06;;;11.26;73.72
13869;BME280;7004;48.206;16.402;2023-05-18T03:55:09;100263.13;;;11.51;73.55
13869;BME280;7004;48.206;16.402;2023-05-18T03:57:36;100259.00;;;11.31;74.08
13869;BME280;7004;48.206;16.402;2023-05-18T04:00:04;100268.13;;;10.95;74.16
13869;BME280;7004;48.206;16.402;2023-05-18T04:02:37;100259.56;;;11.36;73.75
13869;BME280;7004;48.206;16.402;2023-05-18T04:05:04;100265.56;;;11.40;70.79
13869;BME280;7004;48.206;16.402;2023-05-18T04:07:30;100265.63;;;11.08;71.40
13869;BME280;7004;48.206;16.402;2023-05-18T04:09:56;100269.72;;;11.44;73.81
13869;BME280;7004;48.206;16.402;2023-05-18T04:12:23;100264.72;;;11.39;74.35
13869;BME280;7004;48.206;16.402;2023-05-18T04:14:49;100275.84;;;11.14;73.89
13869;BME280;7004;48.206;16.402;2023-05-18T04:17:19;100273.72;;;11.21;73.91
13869;BME280;7004;48.206;16.402;2023-05-18T04:19:51;100273.84;;;11.64;72.81
13869;BME280;7004;48.206;16.402;2023-05-18T04:22:17;100277.66;;;11.74;71.49
13869;BME280;7004;48.206;16.402;2023-05-18T04:24:43;100287.81;;;11.05;73.22
13869;BME280;7004;48.206;16.402;2023-05-18T04:27:12;100284.47;;;11.02;71.86
13869;BME280;7004;48.206;16.402;2023-05-18T04:29:38;100287.69;;;11.23;71.69
13869;BME280;7004;48.206;16.402;2023-05-18T04:32:06;100295.84;;;11.50;69.99
13869;BME280;7004;48.206;16.402;2023-05-18T04:34:33;100292.69;;;11.13;72.53
13869;BME280;7004;48.206;16.402;2023-05-18T04:37:03;100289.97;;;11.45;71.46
13869;BME280;7004;48.206;16.402;2023-05-18T04:39:32;100293.78;;;11.55;72.20
13869;BME280;7004;48.206;16.402;2023-05-18T04:42:00;100292.22;;;11.67;72.92
13869;BME280;7004;48.206;16.402;2023-05-18T04:44:27;100293.28;;;11.48;71.13
13869;BME280;7004;48.206;16.402;2023-05-18T04:46:54;100284.81;;;11.88;70.44
13869;BME280;7004;48.206;16.402;2023-05-18T04:49:21;100283.78;;;11.60;71.09
13869;BME280;7004;48.206;16.402;2023-05-18T04:51:53;100286.63;;;11.57;70.43
13869;BME280;7004;48.206;16.402;2023-05-18T04:54:25;100283.88;;;11.12;71.86
13869;BME280;7004;48.206;16.402;2023-05-18T04:56:52;100291.84;;;11.43;69.85
13869;BME280;7004;48.206;16.402;2023-05-18T04:59:18;100291.94;;;11.71;68.52
13869;BME280;7004;48.206;16.402;2023-05-18T05:01:44;100286.69;;;11.55;70.74
13869;BME280;7004;48.206;16.402;2023-05-18T05:04:11;100291.66;;;11.46;70.08
13869;BME280;7004;48.206;16.402;2023-05-18T05:06:38;100294.06;;;11.50;69.39
13869;BME280;7004;48.206;16.402;2023-05-18T05:09:04;100290.41;;;11.97;69.06
13869;BME280;7004;48.206;16.402;2023-05-18T05:11:30;100300.72;;;11.72;69.57
13869;BME280;7004;48.206;16.402;2023-05-18T05:13:56;100304.38;;;11.55;69.29
13869;BME280;7004;48.206;16.402;2023-05-18T05:16:22;100302.84;;;11.51;71.54
13869;BME280;7004;48.206;16.402;2023-05-18T05:18:48;100302.41;;;11.58;70.28
13869;BME280;7004;48.206;16.402;2023-05-18T05:21:14;100294.59;;;11.25;70.05
13869;BME280;7004;48.206;16.402;2023-05-18T05:23:40;100297.75;;;11.78;69.44
13869;BME280;7004;48.206;16.402;2023-05-18T05:26:06;100292.34;;;11.79;68.75
13869;BME280;7004;48.206;16.402;2023-05-18T05:28:32;100295.25;;;11.75;68.72
13869;BME280;7004;48.206;16.402;2023-05-18T05:30:59;100302.81;;;11.97;68.14
13869;BME280;7004;48.206;16.402;2023-05-18T05:33:25;100306.06;;;11.56;70.83
13869;BME280;7004;48.206;16.402;2023-05-18T05:35:51;100303.91;;;11.32;68.65
13869;BME280;7004;48.206;16.402;2023-05-18T05:38:17;100310.63;;;11.38;69.41
13869;BME280;7004;48.206;16.402;2023-05-18T05:40:43;100308.94;;;11.37;69.52
13869;BME280;7004;48.206;16.402;2023-05-18T05:43:09;100314.50;;;11.32;68.72
13869;BME280;7004;48.206;16.402;2023-05-18T05:45:35;100305.09;;;11.73;69.63
13869;BME280;7004;48.206;16.402;2023-05-18T05:48:01;100303.66;;;11.97;69.25
13869;BME280;7004;48.206;16.402;2023-05-18T05:50:28;100313.88;;;11.43;69.84
13869;BME280;7004;48.206;16.402;2023-05-18T05:52:54;100309.16;;;11.94;70.04
13869;BME280;7004;48.206;16.402;2023-05-18T05:55:21;100314.78;;;11.58;68.88
13869;BME280;7004;48.206;16.402;2023-05-18T05:57:47;100308.94;;;11.37;69.39
13869;BME280;7004;48.206;16.402;2023-05-18T06:00:14;100307.84;;;11.25;68.87
13869;BME280;7004;48.206;16.402;2023-05-18T06:02:40;100316.34;;;11.46;67.97
13869;BME280;7004;48.206;16.402;2023-05-18T06:05:07;100315.50;;;12.06;67.51
13869;BME280;7004;48.206;16.402;2023-05-18T06:07:35;100321.00;;;11.27;68.86
13869;BME280;7004;48.206;16.402;2023-05-18T06:10:01;100316.25;;;11.48;68.97
13869;BME280;7004;48.206;16.402;2023-05-18T06:12:29;100318.41;;;11.57;69.42
13869;BME280;7004;48.206;16.402;2023-05-18T06:14:57;100315.78;;;12.01;69.90
13869;BME280;7004;48.206;16.402;2023-05-18T06:17:26;100323.94;;;11.52;69.50
13869;BME280;7004;48.206;16.402;2023-05-18T06:19:53;100320.22;;;11.71;68.94
13869;BME280;7004;48.206;16.402;2023-05-18T06:22:20;100334.06;;;11.76;70.38
13869;BME280;7004;48.206;16.402;2023-05-18T06:24:45;100329.50;;;11.48;69.55
13869;BME280;7004;48.206;16.402;2023-05-18T06:27:11;100333.09;;;11.47;70.37
13869;BME280;7004;48.206;16.402;2023-05-18T06:29:38;100332.09;;;11.64;71.34
13869;BME280;7004;48.206;16.402;2023-05-18T06:32:04;100334.09;;;11.60;70.69
13869;BME280;7004;48.206;16.402;2023-05-18T06:34:30;100333.78;;;11.34;70.66
13869;BME280;7004;48.206;16.402;2023-05-18T06:36:56;100340.81;;;11.66;71.74
13869;BME280;7004;48.206;16.402;2023-05-18T06:39:23;100346.78;;;11.69;72.52
13869;BME280;7004;48.206;16.402;2023-05-18T06:41:49;100345.31;;;11.18;70.75
13869;BME280;7004;48.206;16.402;2023-05-18T06:44:17;100343.72;;;11.61;72.31
13869;BME280;7004;48.206;16.402;2023-05-18T06:46:43;100348.69;;;11.51;70.09
13869;BME280;7004;48.206;16.402;2023-05-18T06:49:09;100348.31;;;11.73;70.33
13869;BME280;7004;48.206;16.402;2023-05-18T06:51:35;100345.88;;;11.70;70.36
13869;BME280;7004;48.206;16.402;2023-05-18T06:54:01;100348.13;;;11.30;71.33
13869;BME280;7004;48.206;16.402;2023-05-18T06:56:28;100347.75;;;11.98;70.95
13869;BME280;7004;48.206;16.402;2023-05-18T06:58:54;100349.56;;;11.82;72.06
13869;BME280;7004;48.206;16.402;2023-05-18T07:01:20;100352.66;;;11.90;70.17
13869;BME280;7004;48.206;16.402;2023-05-18T07:03:46;100351.41;;;11.66;71.92
13869;BME280;7004;48.206;16.402;2023-05-18T07:06:12;100349.72;;;11.49;70.32
13869;BME280;7004;48.206;16.402;2023-05-18T07:08:38;100350.41;;;11.98;71.08
13869;BME280;7004;48.206;16.402;2023-05-18T07:11:05;100356.44;;;11.86;70.90
13869;BME280;7004;48.206;16.402;2023-05-18T07:13:31;100355.03;;;11.95;69.84
13869;BME280;7004;48.206;16.402;2023-05-18T07:15:57;100360.72;;;11.73;69.97
13869;BME280;7004;48.206;16.402;2023-05-18T07:18:24;100361.53;;;11.43;72.93
13869;BME280;7004;48.206;16.402;2023-05-18T07:20:51;100357.06;;;11.44;71.57
13869;BME280;7004;48.206;16.402;2023-05-18T07:23:17;100360.22;;;11.66;72.26
13869;BME280;7004;48.206;16.402;2023-05-18T07:25:43;100361.63;;;11.42;70.82
13869;BME280;7004;48.206;16.402;2023-05-18T07:28:09;100365.38;;;11.99;71.69
13869;BME280;7004;48.206;16.402;2023-05-18T07:30:35;100366.56;;;11.48;72.36
13869;BME280;7004;48.206;16.402;2023-05-18T07:33:01;100364.00;;;11.30;71.69
13869;BME280;7004;48.206;16.402;2023-05-18T07:35:27;100366.75;;;11.75;71.89
13869;BME280;7004;48.206;16.402;2023-05-18T07:37:54;100370.31;;;11.59;72.02
13869;BME280;7004;48.206;16.402;2023-05-18T07:40:20;100367.59;;;11.45;71.02
13869;BME280;7004;48.206;16.402;2023-05-18T07:42:46;100368.22;;;11.65;72.31
13869;BME280;7004;48.206;16.402;2023-05-18T07:45:12;100370.00;;;11.18;71.27
13869;BME280;7004;48.206;16.402;2023-05-18T07:47:39;100373.81;;;11.60;70.51
13869;BME280;7004;48.206;16.402;2023-05-18T07:50:05;100365.72;;;11.77;72.55
13869;BME280;7004;48.206;16.402;2023-05-18T07:52:32;100366.41;;;11.81;70.08
13869;BME280;7004;48.206;16.402;2023-05-18T07:54:58;100368.06;;;11.68;71.34
13869;BME280;7004;48.206;16.402;2023-05-18T07:57:24;100361.59;;;11.57;71.58
13869;BME280;7004;48.206;16.402;2023-05-18T07:59:51;100373.34;;;11.84;71.68
13869;BME280;7004;48.206;16.402;2023-05-18T08:02:17;100373.81;;;11.28;71.79
13869;BME280;7004;48.206;16.402;2023-05-18T08:04:46;100370.53;;;11.71;71.08
13869;BME280;7004;48.206;16.402;2023-05-18T08:07:12;100367.53;;;11.47;71.95
13869;BME280;7004;48.206;16.402;2023-05-18T08:09:39;100367.50;;;11.31;72.75
13869;BME280;7004;48.206;16.402;2023-05-18T08:12:05;100367.72;;;11.74;70.77
13869;BME280;7004;48.206;16.402;2023-05-18T08:14:32;100367.38;;;11.64;71.01
13869;BME280;7004;48.206;16.402;2023-05-18T08:16:58;100372.25;;;11.72;70.08
13869;BME280;7004;48.206;16.402;2023-05-18T08:19:24;100369.81;;;11.53;70.74
13869;BME280;7004;48.206;16.402;2023-05-18T08:21:51;100371.31;;;11.89;70.68
13869;BME280;7004;48.206;16.402;2023-05-18T08:24:17;100376.06;;;12.57;68.60
13869;BME280;7004;48.206;16.402;2023-05-18T08:26:43;100375.00;;;12.31;69.31
13869;BME280;7004;48.206;16.402;2023-05-18T08:29:09;100378.13;;;11.77;68.61
13869;BME280;7004;48.206;16.402;2023-05-18T08:31:39;100382.69;;;12.05;71.18
13869;BME280;7004;48.206;16.402;2023-05-18T08:34:06;100385.09;;;11.48;69.59
13869;BME280;7004;48.206;16.402;2023-05-18T08:36:34;100383.47;;;11.45;69.68
13869;BME280;7004;48.206;16.402;2023-05-18T08:39:01;100389.41;;;12.41;66.75
13869;BME280;7004;48.206;16.402;2023-05-18T08:41:29;100379.75;;;11.79;68.83
13869;BME280;7004;48.206;16.402;2023-05-18T08:44:10;100385.75;;;12.13;70.12
13869;BME280;7004;48.206;16.402;2023-05-18T08:46:41;100380.69;;;11.78;69.79
13869;BME280;7004;48.206;16.402;2023-05-18T08:49:17;100388.06;;;12.03;70.95
13869;BME280;7004;48.206;16.402;2023-05-18T08:52:03;100385.84;;;12.12;70.76
13869;BME280;7004;48.206;16.402;2023-05-18T08:54:30;100382.25;;;11.67;69.85
13869;BME280;7004;48.206;16.402;2023-05-18T08:56:58;100384.13;;;12.11;69.55
13869;BME280;7004;48.206;16.402;2023-05-18T08:59:26;100381.94;;;12.62;69.18
13869;BME280;7004;48.206;16.402;2023-05-18T09:01:56;100385.28;;;12.21;69.57
13869;BME280;7004;48.206;16.402;2023-05-18T09:04:23;100383.53;;;12.06;69.35
13869;BME280;7004;48.206;16.402;2023-05-18T09:06:50;100382.06;;;12.16;71.47
13869;BME280;7004;48.206;16.402;2023-05-18T09:09:19;100384.25;;;12.23;70.67
13869;BME280;7004;48.206;16.402;2023-05-18T09:11:47;100386.56;;;12.44;69.70
13869;BME280;7004;48.206;16.402;2023-05-18T09:14:13;100387.22;;;12.33;69.82
13869;BME280;7004;48.206;16.402;2023-05-18T09:16:39;100384.63;;;12.32;70.53
13869;BME280;7004;48.206;16.402;2023-05-18T09:19:05;100382.81;;;11.88;69.30
13869;BME280;7004;48.206;16.402;2023-05-18T09:21:32;100389.00;;;12.33;69.90
13869;BME280;7004;48.206;16.402;2023-05-18T09:24:01;100389.88;;;12.33;70.06
13869;BME280;7004;48.206;16.402;2023-05-18T09:26:28;100383.53;;;11.91;70.73
13869;BME280;7004;48.206;16.402;2023-05-18T09:28:54;100382.13;;;12.73;68.43
13869;BME280;7004;48.206;16.402;2023-05-18T09:31:21;100392.06;;;12.70;68.08
13869;BME280;7004;48.206;16.402;2023-05-18T09:33:49;100383.00;;;12.15;70.33
13869;BME280;7004;48.206;16.402;2023-05-18T09:36:16;100390.66;;;12.64;67.18
13869;BME280;7004;48.206;16.402;2023-05-18T09:38:48;100381.13;;;12.17;69.18
13869;BME280;7004;48.206;16.402;2023-05-18T09:41:17;100387.50;;;12.57;68.84
13869;BME280;7004;48.206;16.402;2023-05-18T09:43:52;100391.94;;;12.42;69.80
13869;BME280;7004;48.206;16.402;2023-05-18T09:46:21;100386.16;;;12.50;68.70
13869;BME280;7004;48.206;16.402;2023-05-18T09:48:53;100389.59;;;12.38;69.93
13869;BME280;7004;48.206;16.402;2023-05-18T09:51:20;100374.53;;;12.81;70.26
13869;BME280;7004;48.206;16.402;2023-05-18T09:53:54;100382.22;;;12.43;69.92
13869;BME280;7004;48.206;16.402;2023-05-18T09:56:25;100388.75;;;12.52;70.14
13869;BME280;7004;48.206;16.402;2023-05-18T09:58:52;100384.75;;;12.44;72.89
13869;BME280;7004;48.206;16.402;2023-05-18T10:01:19;100386.47;;;12.60;70.89
13869;BME280;7004;48.206;16.402;2023-05-18T10:03:45;100380.84;;;12.21;71.47
13869;BME280;7004;48.206;16.402;2023-05-18T10:06:13;100390.25;;;12.27;72.53
13869;BME280;7004;48.206;16.402;2023-05-18T10:08:40;100383.44;;;12.52;71.15
13869;BME280;7004;48.206;16.402;2023-05-18T10:11:06;100387.34;;;12.16;71.84
13869;BME280;7004;48.206;16.402;2023-05-18T10:13:34;100378.72;;;12.85;71.02
13869;BME280;7004;48.206;16.402;2023-05-18T10:16:07;100377.94;;;12.83;71.67
13869;BME280;7004;48.206;16.402;2023-05-18T10:18:37;100384.94;;;12.27;71.29
13869;BME280;7004;48.206;16.402;2023-05-18T10:21:05;100382.50;;;12.96;70.89
13869;BME280;7004;48.206;16.402;2023-05-18T10:23:36;100384.22;;;12.54;73.34
13869;BME280;7004;48.206;16.402;2023-05-18T10:26:05;100377.94;;;12.83;71.73
13869;BME280;7004;48.206;16.402;2023-05-18T10:28:43;100381.28;;;12.87;69.92
13869;BME280;7004;48.206;16.402;2023-05-18T10:31:10;100379.56;;;12.72;72.13
13869;BME280;7004;48.206;16.402;2023-05-18T10:33:36;100380.50;;;12.42;71.50
13869;BME280;7004;48.206;16.402;2023-05-18T10:36:04;100370.78;;;13.12;70.01
13869;BME280;7004;48.206;16.402;2023-05-18T10:38:31;100371.66;;;13.27;70.15
13869;BME280;7004;48.206;16.402;2023-05-18T10:40:59;100380.13;;;12.62;70.92
13869;BME280;7004;48.206;16.402;2023-05-18T10:43:26;100370.06;;;13.10;70.15
13869;BME280;7004;48.206;16.402;2023-05-18T10:45:57;100376.16;;;13.25;70.68
13869;BME280;7004;48.206;16.402;2023-05-18T10:48:25;100373.13;;;13.46;68.30
13869;BME280;7004;48.206;16.402;2023-05-18T10:50:56;100372.06;;;12.93;70.19
13869;BME280;7004;48.206;16.402;2023-05-18T10:53:26;100376.81;;;12.87;70.52
13869;BME280;7004;48.206;16.402;2023-05-18T10:55:54;100371.84;;;13.51;68.95
13869;BME280;7004;48.206;16.402;2023-05-18T10:58:26;100367.34;;;13.93;67.36
13869;BME280;7004;48.206;16.402;2023-05-18T11:00:58;100371.47;;;13.58;68.15
13869;BME280;7004;48.206;16.402;2023-05-18T11:03:26;100368.06;;;13.83;67.64
13869;BME280;7004;48.206;16.402;2023-05-18T11:06:06;100366.69;;;13.36;68.48
13869;BME280;7004;48.206;16.402;2023-05-18T11:08:34;100365.25;;;12.88;69.87
13869;BME280;7004;48.206;16.402;2023-05-18T11:11:07;100364.78;;;13.38;69.06
13869;BME280;7004;48.206;16.402;2023-05-18T11:13:37;100369.13;;;13.53;68.75
13869;BME280;7004;48.206;16.402;2023-05-18T11:16:08;100369.06;;;12.84;69.14
13869;BME280;7004;48.206;16.402;2023-05-18T11:18:42;100366.31;;;13.42;67.83
13869;BME280;7004;48.206;16.402;2023-05-18T11:24:28;100373.28;;;13.16;69.31
13869;BME280;7004;48.206;16.402;2023-05-18T11:27:15;100372.84;;;14.03;66.10
13869;BME280;7004;48.206;16.402;2023-05-18T11:29:43;100365.44;;;13.00;67.26
13869;BME280;7004;48.206;16.402;2023-05-18T11:32:26;100373.66;;;13.09;68.31
13869;BME280;7004;48.206;16.402;2023-05-18T11:34:55;100371.59;;;13.96;66.07
13869;BME280;7004;48.206;16.402;2023-05-18T11:40:11;100372.28;;;13.85;66.52
13869;BME280;7004;48.206;16.402;2023-05-18T11:42:38;100373.84;;;14.15;66.25
13869;BME280;7004;48.206;16.402;2023-05-18T11:45:09;100374.66;;;13.36;65.95
13869;BME280;7004;48.206;16.402;2023-05-18T11:47:36;100373.28;;;13.16;67.57
13869;BME280;7004;48.206;16.402;2023-05-18T11:50:09;100380.00;;;13.63;68.62
13869;BME280;7004;48.206;16.402;2023-05-18T11:52:48;100372.31;;;13.17;67.99
13869;BME280;7004;48.206;16.402;2023-05-18T11:55:19;100373.97;;;13.73;67.50
13869;BME280;7004;48.206;16.402;2023-05-18T11:57:49;100376.38;;;13.64;66.81
13869;BME280;7004;48.206;16.402;2023-05-18T12:00:17;100367.22;;;13.55;67.77
13869;BME280;7004;48.206;16.402;2023-05-18T12:02:46;100369.16;;;13.66;66.57
13869;BME280;7004;48.206;16.402;2023-05-18T12:05:13;100367.81;;;13.73;67.35
13869;BME280;7004;48.206;16.402;2023-05-18T12:07:41;100380.00;;;14.15;66.12
13869;BME280;7004;48.206;16.402;2023-05-18T12:10:11;100379.03;;;13.37;67.99
13869;BME280;7004;48.206;16.402;2023-05-18T12:12:40;100373.34;;;13.70;67.12
13869;BME280;7004;48.206;16.402;2023-05-18T12:15:09;100374.31;;;13.82;67.24
13869;BME280;7004;48.206;16.402;2023-05-18T12:17:49;100377.16;;;13.51;68.44
13869;BME280;7004;48.206;16.402;2023-05-18T12:20:17;100381.25;;;13.57;68.12
13869;BME280;7004;48.206;16.402;2023-05-18T12:22:46;100381.34;;;13.28;69.56
13869;BME280;7004;48.206;16.402;2023-05-18T12:25:18;100385.69;;;13.57;68.73
13869;BME280;7004;48.206;16.402;2023-05-18T12:27:45;100377.69;;;13.71;67.25
13869;BME280;7004;48.206;16.402;2023-05-18T12:32:53;100375.34;;;14.32;66.08
13869;BME280;7004;48.206;16.402;2023-05-18T12:35:26;100383.06;;;13.96;66.35
13869;BME280;7004;48.206;16.402;2023-05-18T12:37:53;100383.78;;;13.86;67.26
13869;BME280;7004;48.206;16.402;2023-05-18T12:40:21;100380.94;;;14.02;68.72
13869;BME280;7004;48.206;16.402;2023-05-18T12:43:05;100374.25;;;13.96;68.28
13869;BME280;7004;48.206;16.402;2023-05-18T12:45:32;100377.44;;;14.01;68.37
13869;BME280;7004;48.206;16.402;2023-05-18T12:48:09;100365.38;;;14.35;65.48
13869;BME280;7004;48.206;16.402;2023-05-18T12:50:49;100371.22;;;13.88;67.40
13869;BME280;7004;48.206;16.402;2023-05-18T12:53:16;100364.81;;;14.17;67.65
13869;BME280;7004;48.206;16.402;2023-05-18T12:55:43;100375.09;;;13.96;67.55
13869;BME280;7004;48.206;16.402;2023-05-18T12:58:14;100374.75;;;13.88;67.88
13869;BME280;7004;48.206;16.402;2023-05-18T13:00:45;100369.72;;;13.71;68.12
13869;BME280;7004;48.206;16.402;2023-05-18T13:03:14;100376.22;;;13.80;69.44
13869;BME280;7004;48.206;16.402;2023-05-18T13:05:42;100373.88;;;13.88;68.40